sensor_id;sensor_type;location;lat;lon;timestamp;P1;durP1;ratioP1;P2;durP2;ratioP2
7195;SDS011;3639;51.308;5.624;2022-08-19T00:00:23;15.77;;;11.37;;
7195;SDS011;3639;51.308;5.624;2022-08-19T00:02:49;15.77;;;11.50;;
7195;SDS011;3639;51.308;5.624;2022-08-19T00:05:15;16.23;;;11.83;;
7195;SDS011;3639;51.308;5.624;2022-08-19T00:07:42;16.33;;;11.70;;
7195;SDS011;3639;51.308;5.624;2022-08-19T00:10:09;15.27;;;12.43;;
7195;SDS011;3639;51.308;5.624;2022-08-19T00:12:36;16.10;;;11.67;;
7195;SDS011;3639;51.308;5.624;2022-08-19T00:15:07;17.17;;;12.60;;
7195;SDS011;3639;51.308;5.624;2022-08-19T00:17:37;16.37;;;12.30;;
7195;SDS011;3639;51.308;5.624;2022-08-19T00:20:04;17.83;;;13.23;;
7195;SDS011;3639;51.308;5.624;2022-08-19T00:22:30;17.90;;;12.33;;
7195;SDS011;3639;51.308;5.624;2022-08-19T00:24:56;18.70;;;12.40;;
7195;SDS011;3639;51.308;5.624;2022-08-19T00:27:22;17.63;;;11.47;;
7195;SDS011;3639;51.308;5.624;2022-08-19T00:29:47;17.97;;;12.50;;
7195;SDS011;3639;51.308;5.624;2022-08-19T00:32:13;18.50;;;12.73;;
7195;SDS011;3639;51.308;5.624;2022-08-19T00:34:38;18.27;;;12.43;;
7195;SDS011;3639;51.308;5.624;2022-08-19T00:37:04;17.27;;;12.23;;
7195;SDS011;3639;51.308;5.624;2022-08-19T00:39:30;13.90;;;10.67;;
7195;SDS011;3639;51.308;5.624;2022-08-19T00:41:55;17.17;;;12.57;;
7195;SDS011;3639;51.308;5.624;2022-08-19T00:44:23;17.63;;;11.47;;
7195;SDS011;3639;51.308;5.624;2022-08-19T00:46:51;17.80;;;12.17;;
7195;SDS011;3639;51.308;5.624;2022-08-19T00:49:20;18.17;;;12.10;;
7195;SDS011;3639;51.308;5.624;2022-08-19T00:51:57;16.77;;;11.47;;
7195;SDS011;3639;51.308;5.624;2022-08-19T00:54:31;18.20;;;12.60;;
7195;SDS011;3639;51.308;5.624;2022-08-19T00:56:58;18.87;;;13.17;;
7195;SDS011;3639;51.308;5.624;2022-08-19T00:59:26;19.43;;;12.80;;
7195;SDS011;3639;51.308;5.624;2022-08-19T01:01:53;17.17;;;12.47;;
7195;SDS011;3639;51.308;5.624;2022-08-19T01:04:19;18.93;;;13.03;;
7195;SDS011;3639;51.308;5.624;2022-08-19T01:06:45;15.97;;;12.13;;
7195;SDS011;3639;51.308;5.624;2022-08-19T01:09:10;17.43;;;13.17;;
7195;SDS011;3639;51.308;5.624;2022-08-19T01:11:38;17.73;;;12.70;;
7195;SDS011;3639;51.308;5.624;2022-08-19T01:14:06;14.90;;;10.97;;
7195;SDS011;3639;51.308;5.624;2022-08-19T01:16:33;19.07;;;12.47;;
7195;SDS011;3639;51.308;5.624;2022-08-19T01:19:00;17.17;;;11.77;;
7195;SDS011;3639;51.308;5.624;2022-08-19T01:21:31;18.90;;;12.60;;
7195;SDS011;3639;51.308;5.624;2022-08-19T01:24:02;16.03;;;11.73;;
7195;SDS011;3639;51.308;5.624;2022-08-19T01:26:29;16.83;;;11.83;;
7195;SDS011;3639;51.308;5.624;2022-08-19T01:28:56;16.93;;;12.27;;
7195;SDS011;3639;51.308;5.624;2022-08-19T01:31:25;17.67;;;11.73;;
7195;SDS011;3639;51.308;5.624;2022-08-19T01:33:56;20.03;;;12.70;;
7195;SDS011;3639;51.308;5.624;2022-08-19T01:36:27;17.30;;;12.83;;
7195;SDS011;3639;51.308;5.624;2022-08-19T01:39:02;17.77;;;11.47;;
7195;SDS011;3639;51.308;5.624;2022-08-19T01:41:30;20.77;;;12.00;;
7195;SDS011;3639;51.308;5.624;2022-08-19T01:43:57;18.50;;;12.30;;
7195;SDS011;3639;51.308;5.624;2022-08-19T01:46:22;18.80;;;12.50;;
7195;SDS011;3639;51.308;5.624;2022-08-19T01:48:48;20.27;;;12.93;;
7195;SDS011;3639;51.308;5.624;2022-08-19T01:51:14;19.53;;;12.57;;
7195;SDS011;3639;51.308;5.624;2022-08-19T01:53:40;18.50;;;12.17;;
7195;SDS011;3639;51.308;5.624;2022-08-19T01:56:06;17.53;;;12.23;;
7195;SDS011;3639;51.308;5.624;2022-08-19T01:58:40;18.47;;;12.20;;
7195;SDS011;3639;51.308;5.624;2022-08-19T02:01:11;18.73;;;12.07;;
7195;SDS011;3639;51.308;5.624;2022-08-19T02:03:37;17.60;;;11.57;;
7195;SDS011;3639;51.308;5.624;2022-08-19T02:06:03;18.40;;;13.00;;
7195;SDS011;3639;51.308;5.624;2022-08-19T02:08:30;19.50;;;13.10;;
7195;SDS011;3639;51.308;5.624;2022-08-19T02:10:58;21.13;;;11.93;;
7195;SDS011;3639;51.308;5.624;2022-08-19T02:13:24;17.43;;;12.63;;
7195;SDS011;3639;51.308;5.624;2022-08-19T02:15:50;16.57;;;11.70;;
7195;SDS011;3639;51.308;5.624;2022-08-19T02:18:16;17.60;;;11.97;;
7195;SDS011;3639;51.308;5.624;2022-08-19T02:20:42;16.93;;;11.27;;
7195;SDS011;3639;51.308;5.624;2022-08-19T02:23:09;17.53;;;11.80;;
7195;SDS011;3639;51.308;5.624;2022-08-19T02:25:37;16.43;;;11.13;;
7195;SDS011;3639;51.308;5.624;2022-08-19T02:28:03;17.57;;;11.10;;
7195;SDS011;3639;51.308;5.624;2022-08-19T02:30:29;19.37;;;11.47;;
7195;SDS011;3639;51.308;5.624;2022-08-19T02:32:55;17.43;;;10.90;;
7195;SDS011;3639;51.308;5.624;2022-08-19T02:35:21;15.43;;;11.03;;
7195;SDS011;3639;51.308;5.624;2022-08-19T02:37:47;16.97;;;11.43;;
7195;SDS011;3639;51.308;5.624;2022-08-19T02:40:31;18.03;;;11.90;;
7195;SDS011;3639;51.308;5.624;2022-08-19T02:42:59;19.90;;;12.07;;
7195;SDS011;3639;51.308;5.624;2022-08-19T02:45:32;16.73;;;11.20;;
7195;SDS011;3639;51.308;5.624;2022-08-19T02:48:02;14.33;;;10.53;;
7195;SDS011;3639;51.308;5.624;2022-08-19T02:50:29;13.70;;;10.13;;
7195;SDS011;3639;51.308;5.624;2022-08-19T02:52:54;14.93;;;10.03;;
7195;SDS011;3639;51.308;5.624;2022-08-19T02:55:20;16.30;;;11.03;;
7195;SDS011;3639;51.308;5.624;2022-08-19T02:57:46;16.87;;;11.03;;
7195;SDS011;3639;51.308;5.624;2022-08-19T03:00:12;16.07;;;11.17;;
7195;SDS011;3639;51.308;5.624;2022-08-19T03:02:38;19.90;;;12.90;;
7195;SDS011;3639;51.308;5.624;2022-08-19T03:05:05;18.43;;;12.13;;
7195;SDS011;3639;51.308;5.624;2022-08-19T03:07:32;16.00;;;10.40;;
7195;SDS011;3639;51.308;5.624;2022-08-19T03:09:58;16.20;;;11.20;;
7195;SDS011;3639;51.308;5.624;2022-08-19T03:12:23;16.67;;;10.53;;
7195;SDS011;3639;51.308;5.624;2022-08-19T03:14:49;14.60;;;10.07;;
7195;SDS011;3639;51.308;5.624;2022-08-19T03:17:16;16.40;;;11.17;;
7195;SDS011;3639;51.308;5.624;2022-08-19T03:19:41;15.43;;;10.97;;
7195;SDS011;3639;51.308;5.624;2022-08-19T03:22:08;15.37;;;10.87;;
7195;SDS011;3639;51.308;5.624;2022-08-19T03:24:33;17.63;;;11.67;;
7195;SDS011;3639;51.308;5.624;2022-08-19T03:26:59;15.73;;;10.97;;
7195;SDS011;3639;51.308;5.624;2022-08-19T03:29:26;14.13;;;9.73;;
7195;SDS011;3639;51.308;5.624;2022-08-19T03:31:53;16.73;;;10.63;;
7195;SDS011;3639;51.308;5.624;2022-08-19T03:34:20;17.13;;;11.63;;
7195;SDS011;3639;51.308;5.624;2022-08-19T03:36:51;18.20;;;11.40;;
7195;SDS011;3639;51.308;5.624;2022-08-19T03:39:19;14.80;;;10.20;;
7195;SDS011;3639;51.308;5.624;2022-08-19T03:41:45;14.67;;;9.63;;
7195;SDS011;3639;51.308;5.624;2022-08-19T03:44:14;17.43;;;11.43;;
7195;SDS011;3639;51.308;5.624;2022-08-19T03:46:55;15.33;;;10.70;;
7195;SDS011;3639;51.308;5.624;2022-08-19T03:49:23;15.43;;;10.07;;
7195;SDS011;3639;51.308;5.624;2022-08-19T03:51:52;15.13;;;10.60;;
7195;SDS011;3639;51.308;5.624;2022-08-19T03:54:20;17.40;;;10.70;;
7195;SDS011;3639;51.308;5.624;2022-08-19T03:56:48;18.70;;;11.70;;
7195;SDS011;3639;51.308;5.624;2022-08-19T03:59:21;17.87;;;11.27;;
7195;SDS011;3639;51.308;5.624;2022-08-19T04:01:50;16.20;;;10.47;;
7195;SDS011;3639;51.308;5.624;2022-08-19T04:04:16;15.73;;;10.50;;
7195;SDS011;3639;51.308;5.624;2022-08-19T04:06:42;16.57;;;11.03;;
7195;SDS011;3639;51.308;5.624;2022-08-19T04:09:09;16.60;;;10.27;;
7195;SDS011;3639;51.308;5.624;2022-08-19T04:11:39;16.67;;;10.53;;
7195;SDS011;3639;51.308;5.624;2022-08-19T04:14:08;16.40;;;10.83;;
7195;SDS011;3639;51.308;5.624;2022-08-19T04:16:37;18.87;;;11.87;;
7195;SDS011;3639;51.308;5.624;2022-08-19T04:19:03;16.03;;;11.17;;
7195;SDS011;3639;51.308;5.624;2022-08-19T04:21:31;17.13;;;11.30;;
7195;SDS011;3639;51.308;5.624;2022-08-19T04:23:58;15.33;;;10.30;;
7195;SDS011;3639;51.308;5.624;2022-08-19T04:26:25;16.80;;;11.13;;
7195;SDS011;3639;51.308;5.624;2022-08-19T04:28:58;18.30;;;11.50;;
7195;SDS011;3639;51.308;5.624;2022-08-19T04:31:30;17.87;;;11.47;;
7195;SDS011;3639;51.308;5.624;2022-08-19T04:34:00;18.63;;;11.83;;
7195;SDS011;3639;51.308;5.624;2022-08-19T04:36:30;17.83;;;11.43;;
7195;SDS011;3639;51.308;5.624;2022-08-19T04:38:59;19.37;;;11.80;;
7195;SDS011;3639;51.308;5.624;2022-08-19T04:41:28;16.43;;;10.97;;
7195;SDS011;3639;51.308;5.624;2022-08-19T04:44:12;19.50;;;11.90;;
7195;SDS011;3639;51.308;5.624;2022-08-19T04:46:39;17.63;;;11.20;;
7195;SDS011;3639;51.308;5.624;2022-08-19T04:49:06;23.60;;;13.40;;
7195;SDS011;3639;51.308;5.624;2022-08-19T04:51:33;19.23;;;12.30;;
7195;SDS011;3639;51.308;5.624;2022-08-19T04:54:00;21.17;;;12.70;;
7195;SDS011;3639;51.308;5.624;2022-08-19T04:56:27;20.53;;;12.07;;
7195;SDS011;3639;51.308;5.624;2022-08-19T04:58:54;17.77;;;12.40;;
7195;SDS011;3639;51.308;5.624;2022-08-19T05:01:23;17.97;;;11.40;;
7195;SDS011;3639;51.308;5.624;2022-08-19T05:03:51;23.07;;;13.00;;
7195;SDS011;3639;51.308;5.624;2022-08-19T05:06:19;19.67;;;12.87;;
7195;SDS011;3639;51.308;5.624;2022-08-19T05:08:46;21.97;;;13.20;;
7195;SDS011;3639;51.308;5.624;2022-08-19T05:11:14;22.43;;;13.00;;
7195;SDS011;3639;51.308;5.624;2022-08-19T05:13:45;27.53;;;14.00;;
7195;SDS011;3639;51.308;5.624;2022-08-19T05:16:13;24.33;;;13.50;;
7195;SDS011;3639;51.308;5.624;2022-08-19T05:18:41;22.90;;;12.77;;
7195;SDS011;3639;51.308;5.624;2022-08-19T05:21:26;23.53;;;13.37;;
7195;SDS011;3639;51.308;5.624;2022-08-19T05:24:11;28.17;;;13.90;;
7195;SDS011;3639;51.308;5.624;2022-08-19T05:26:40;24.77;;;13.73;;
7195;SDS011;3639;51.308;5.624;2022-08-19T05:29:07;28.93;;;15.67;;
7195;SDS011;3639;51.308;5.624;2022-08-19T05:31:34;29.33;;;16.13;;
7195;SDS011;3639;51.308;5.624;2022-08-19T05:34:01;27.77;;;15.17;;
7195;SDS011;3639;51.308;5.624;2022-08-19T05:36:28;32.93;;;16.27;;
7195;SDS011;3639;51.308;5.624;2022-08-19T05:38:59;26.97;;;16.60;;
7195;SDS011;3639;51.308;5.624;2022-08-19T05:41:26;27.23;;;14.83;;
7195;SDS011;3639;51.308;5.624;2022-08-19T05:44:00;30.23;;;17.10;;
7195;SDS011;3639;51.308;5.624;2022-08-19T05:46:27;30.30;;;17.40;;
7195;SDS011;3639;51.308;5.624;2022-08-19T05:48:53;32.73;;;16.77;;
7195;SDS011;3639;51.308;5.624;2022-08-19T05:51:21;32.43;;;16.47;;
7195;SDS011;3639;51.308;5.624;2022-08-19T05:53:48;25.80;;;15.10;;
7195;SDS011;3639;51.308;5.624;2022-08-19T05:56:14;31.57;;;15.20;;
7195;SDS011;3639;51.308;5.624;2022-08-19T05:58:41;29.93;;;15.03;;
7195;SDS011;3639;51.308;5.624;2022-08-19T06:01:10;28.30;;;16.20;;
7195;SDS011;3639;51.308;5.624;2022-08-19T06:03:38;30.10;;;16.37;;
7195;SDS011;3639;51.308;5.624;2022-08-19T06:06:05;27.57;;;15.53;;
7195;SDS011;3639;51.308;5.624;2022-08-19T06:08:33;34.87;;;16.87;;
7195;SDS011;3639;51.308;5.624;2022-08-19T06:11:11;29.77;;;14.70;;
7195;SDS011;3639;51.308;5.624;2022-08-19T06:13:59;31.67;;;14.63;;
7195;SDS011;3639;51.308;5.624;2022-08-19T06:16:28;27.10;;;14.90;;
7195;SDS011;3639;51.308;5.624;2022-08-19T06:18:56;32.50;;;16.20;;
7195;SDS011;3639;51.308;5.624;2022-08-19T06:21:26;28.33;;;15.27;;
7195;SDS011;3639;51.308;5.624;2022-08-19T06:23:53;24.53;;;13.73;;
7195;SDS011;3639;51.308;5.624;2022-08-19T06:26:19;27.10;;;13.47;;
7195;SDS011;3639;51.308;5.624;2022-08-19T06:28:47;26.97;;;14.43;;
7195;SDS011;3639;51.308;5.624;2022-08-19T06:31:14;28.30;;;13.73;;
7195;SDS011;3639;51.308;5.624;2022-08-19T06:33:42;26.90;;;14.37;;
7195;SDS011;3639;51.308;5.624;2022-08-19T06:36:19;29.53;;;13.77;;
7195;SDS011;3639;51.308;5.624;2022-08-19T06:38:47;25.10;;;13.40;;
7195;SDS011;3639;51.308;5.624;2022-08-19T06:41:12;27.03;;;13.90;;
7195;SDS011;3639;51.308;5.624;2022-08-19T06:43:38;25.33;;;13.57;;
7195;SDS011;3639;51.308;5.624;2022-08-19T06:46:09;26.30;;;13.43;;
7195;SDS011;3639;51.308;5.624;2022-08-19T06:48:36;26.77;;;12.70;;
7195;SDS011;3639;51.308;5.624;2022-08-19T06:51:02;24.90;;;13.43;;
7195;SDS011;3639;51.308;5.624;2022-08-19T06:53:30;23.33;;;12.40;;
7195;SDS011;3639;51.308;5.624;2022-08-19T06:55:56;25.23;;;13.03;;
7195;SDS011;3639;51.308;5.624;2022-08-19T06:58:25;23.37;;;13.60;;
7195;SDS011;3639;51.308;5.624;2022-08-19T07:00:51;25.13;;;12.70;;
7195;SDS011;3639;51.308;5.624;2022-08-19T07:03:16;25.70;;;12.87;;
7195;SDS011;3639;51.308;5.624;2022-08-19T07:05:42;23.50;;;12.27;;
7195;SDS011;3639;51.308;5.624;2022-08-19T07:08:08;22.77;;;11.67;;
7195;SDS011;3639;51.308;5.624;2022-08-19T07:10:34;15.50;;;10.13;;
7195;SDS011;3639;51.308;5.624;2022-08-19T07:13:01;22.67;;;10.73;;
7195;SDS011;3639;51.308;5.624;2022-08-19T07:15:28;19.70;;;10.90;;
7195;SDS011;3639;51.308;5.624;2022-08-19T07:17:54;22.27;;;11.20;;
7195;SDS011;3639;51.308;5.624;2022-08-19T07:20:19;23.20;;;11.67;;
7195;SDS011;3639;51.308;5.624;2022-08-19T07:22:45;19.17;;;10.30;;
7195;SDS011;3639;51.308;5.624;2022-08-19T07:25:11;19.07;;;10.93;;
7195;SDS011;3639;51.308;5.624;2022-08-19T07:27:38;22.00;;;11.40;;
7195;SDS011;3639;51.308;5.624;2022-08-19T07:30:04;19.00;;;10.97;;
7195;SDS011;3639;51.308;5.624;2022-08-19T07:32:30;19.30;;;10.57;;
7195;SDS011;3639;51.308;5.624;2022-08-19T07:34:55;21.60;;;10.70;;
7195;SDS011;3639;51.308;5.624;2022-08-19T07:37:21;20.50;;;10.67;;
7195;SDS011;3639;51.308;5.624;2022-08-19T07:39:47;20.43;;;11.20;;
7195;SDS011;3639;51.308;5.624;2022-08-19T07:42:13;21.27;;;10.57;;
7195;SDS011;3639;51.308;5.624;2022-08-19T07:44:39;16.63;;;9.47;;
7195;SDS011;3639;51.308;5.624;2022-08-19T07:47:05;19.90;;;10.43;;
7195;SDS011;3639;51.308;5.624;2022-08-19T07:49:32;18.17;;;10.10;;
7195;SDS011;3639;51.308;5.624;2022-08-19T07:51:59;14.87;;;9.30;;
7195;SDS011;3639;51.308;5.624;2022-08-19T07:54:27;16.20;;;9.40;;
7195;SDS011;3639;51.308;5.624;2022-08-19T07:56:56;15.93;;;9.50;;
7195;SDS011;3639;51.308;5.624;2022-08-19T07:59:22;20.37;;;10.63;;
7195;SDS011;3639;51.308;5.624;2022-08-19T08:01:48;18.00;;;8.67;;
7195;SDS011;3639;51.308;5.624;2022-08-19T08:04:15;17.23;;;8.77;;
7195;SDS011;3639;51.308;5.624;2022-08-19T08:07:00;16.40;;;9.00;;
7195;SDS011;3639;51.308;5.624;2022-08-19T08:09:45;19.57;;;9.50;;
7195;SDS011;3639;51.308;5.624;2022-08-19T08:12:12;16.90;;;10.00;;
7195;SDS011;3639;51.308;5.624;2022-08-19T08:14:45;16.53;;;8.40;;
7195;SDS011;3639;51.308;5.624;2022-08-19T08:17:13;16.50;;;9.03;;
7195;SDS011;3639;51.308;5.624;2022-08-19T08:19:41;18.03;;;9.33;;
7195;SDS011;3639;51.308;5.624;2022-08-19T08:22:08;19.13;;;8.50;;
7195;SDS011;3639;51.308;5.624;2022-08-19T08:24:54;13.67;;;8.60;;
7195;SDS011;3639;51.308;5.624;2022-08-19T08:27:23;15.17;;;9.17;;
7195;SDS011;3639;51.308;5.624;2022-08-19T08:29:49;16.37;;;9.50;;
7195;SDS011;3639;51.308;5.624;2022-08-19T08:32:14;17.23;;;8.97;;
7195;SDS011;3639;51.308;5.624;2022-08-19T08:34:40;13.73;;;8.77;;
7195;SDS011;3639;51.308;5.624;2022-08-19T08:37:06;12.77;;;7.60;;
7195;SDS011;3639;51.308;5.624;2022-08-19T08:39:32;17.83;;;9.17;;
7195;SDS011;3639;51.308;5.624;2022-08-19T08:42:01;16.67;;;8.27;;
7195;SDS011;3639;51.308;5.624;2022-08-19T08:45:03;11.53;;;7.63;;
7195;SDS011;3639;51.308;5.624;2022-08-19T08:47:33;12.97;;;8.43;;
7195;SDS011;3639;51.308;5.624;2022-08-19T08:50:13;11.40;;;8.57;;
7195;SDS011;3639;51.308;5.624;2022-08-19T08:52:45;14.37;;;9.70;;
7195;SDS011;3639;51.308;5.624;2022-08-19T08:55:15;14.53;;;9.13;;
7195;SDS011;3639;51.308;5.624;2022-08-19T08:57:50;17.10;;;9.97;;
7195;SDS011;3639;51.308;5.624;2022-08-19T09:00:26;13.73;;;9.93;;
7195;SDS011;3639;51.308;5.624;2022-08-19T09:02:55;13.20;;;9.53;;
7195;SDS011;3639;51.308;5.624;2022-08-19T09:05:22;12.83;;;9.43;;
7195;SDS011;3639;51.308;5.624;2022-08-19T09:08:15;12.93;;;8.17;;
7195;SDS011;3639;51.308;5.624;2022-08-19T09:11:04;10.77;;;8.03;;
7195;SDS011;3639;51.308;5.624;2022-08-19T09:16:26;10.57;;;7.60;;
7195;SDS011;3639;51.308;5.624;2022-08-19T09:18:55;12.13;;;7.43;;
7195;SDS011;3639;51.308;5.624;2022-08-19T09:21:24;13.13;;;8.37;;
7195;SDS011;3639;51.308;5.624;2022-08-19T09:23:51;10.40;;;7.20;;
7195;SDS011;3639;51.308;5.624;2022-08-19T09:26:18;7.63;;;5.57;;
7195;SDS011;3639;51.308;5.624;2022-08-19T09:28:47;6.53;;;5.30;;
7195;SDS011;3639;51.308;5.624;2022-08-19T09:31:15;8.23;;;5.55;;
7195;SDS011;3639;51.308;5.624;2022-08-19T09:33:48;10.83;;;6.33;;
7195;SDS011;3639;51.308;5.624;2022-08-19T09:36:15;7.70;;;5.63;;
7195;SDS011;3639;51.308;5.624;2022-08-19T09:38:41;6.60;;;5.00;;
7195;SDS011;3639;51.308;5.624;2022-08-19T09:41:15;6.83;;;4.80;;
7195;SDS011;3639;51.308;5.624;2022-08-19T09:43:44;5.65;;;4.55;;
7195;SDS011;3639;51.308;5.624;2022-08-19T09:46:10;8.30;;;4.90;;
7195;SDS011;3639;51.308;5.624;2022-08-19T09:48:37;6.83;;;4.70;;
7195;SDS011;3639;51.308;5.624;2022-08-19T09:53:31;5.60;;;3.95;;
7195;SDS011;3639;51.308;5.624;2022-08-19T09:55:57;4.38;;;3.75;;
7195;SDS011;3639;51.308;5.624;2022-08-19T09:58:23;4.22;;;3.33;;
7195;SDS011;3639;51.308;5.624;2022-08-19T10:00:52;5.35;;;3.58;;
7195;SDS011;3639;51.308;5.624;2022-08-19T10:03:19;4.75;;;3.25;;
7195;SDS011;3639;51.308;5.624;2022-08-19T10:05:44;6.43;;;3.67;;
7195;SDS011;3639;51.308;5.624;2022-08-19T10:08:14;5.32;;;3.30;;
7195;SDS011;3639;51.308;5.624;2022-08-19T10:10:48;3.83;;;3.08;;
7195;SDS011;3639;51.308;5.624;2022-08-19T10:13:16;4.93;;;3.40;;
7195;SDS011;3639;51.308;5.624;2022-08-19T10:15:46;3.63;;;2.85;;
7195;SDS011;3639;51.308;5.624;2022-08-19T10:18:15;3.28;;;2.70;;
7195;SDS011;3639;51.308;5.624;2022-08-19T10:20:42;4.15;;;2.70;;
7195;SDS011;3639;51.308;5.624;2022-08-19T10:23:10;4.13;;;3.03;;
7195;SDS011;3639;51.308;5.624;2022-08-19T10:25:37;3.92;;;3.20;;
7195;SDS011;3639;51.308;5.624;2022-08-19T10:28:03;7.50;;;3.10;;
7195;SDS011;3639;51.308;5.624;2022-08-19T10:30:30;4.82;;;2.83;;
7195;SDS011;3639;51.308;5.624;2022-08-19T10:32:57;4.47;;;2.83;;
7195;SDS011;3639;51.308;5.624;2022-08-19T10:35:22;3.53;;;2.33;;
7195;SDS011;3639;51.308;5.624;2022-08-19T10:37:49;4.85;;;2.78;;
7195;SDS011;3639;51.308;5.624;2022-08-19T10:40:15;4.43;;;2.92;;
7195;SDS011;3639;51.308;5.624;2022-08-19T10:42:40;3.85;;;3.13;;
7195;SDS011;3639;51.308;5.624;2022-08-19T10:45:06;4.60;;;3.22;;
7195;SDS011;3639;51.308;5.624;2022-08-19T10:47:34;4.68;;;3.38;;
7195;SDS011;3639;51.308;5.624;2022-08-19T10:50:00;3.35;;;2.97;;
7195;SDS011;3639;51.308;5.624;2022-08-19T10:52:46;5.90;;;3.80;;
7195;SDS011;3639;51.308;5.624;2022-08-19T10:55:13;6.13;;;4.00;;
7195;SDS011;3639;51.308;5.624;2022-08-19T10:57:57;6.00;;;3.40;;
7195;SDS011;3639;51.308;5.624;2022-08-19T11:00:23;3.78;;;3.40;;
7195;SDS011;3639;51.308;5.624;2022-08-19T11:02:50;4.70;;;4.18;;
7195;SDS011;3639;51.308;5.624;2022-08-19T11:05:16;5.93;;;3.50;;
7195;SDS011;3639;51.308;5.624;2022-08-19T11:07:43;6.53;;;3.70;;
7195;SDS011;3639;51.308;5.624;2022-08-19T11:10:10;5.32;;;3.55;;
7195;SDS011;3639;51.308;5.624;2022-08-19T11:12:38;4.45;;;3.08;;
7195;SDS011;3639;51.308;5.624;2022-08-19T11:15:08;7.10;;;3.88;;
7195;SDS011;3639;51.308;5.624;2022-08-19T11:17:36;4.20;;;3.55;;
7195;SDS011;3639;51.308;5.624;2022-08-19T11:20:09;5.03;;;3.90;;
7195;SDS011;3639;51.308;5.624;2022-08-19T11:22:37;4.35;;;3.50;;
7195;SDS011;3639;51.308;5.624;2022-08-19T11:25:03;4.43;;;3.92;;
7195;SDS011;3639;51.308;5.624;2022-08-19T11:27:29;5.53;;;3.88;;
7195;SDS011;3639;51.308;5.624;2022-08-19T11:29:55;5.68;;;3.50;;
7195;SDS011;3639;51.308;5.624;2022-08-19T11:32:21;5.53;;;3.30;;
7195;SDS011;3639;51.308;5.624;2022-08-19T11:34:46;5.50;;;3.38;;
7195;SDS011;3639;51.308;5.624;2022-08-19T11:37:12;5.60;;;3.97;;
7195;SDS011;3639;51.308;5.624;2022-08-19T11:39:37;5.22;;;4.10;;
7195;SDS011;3639;51.308;5.624;2022-08-19T11:42:04;5.97;;;3.88;;
7195;SDS011;3639;51.308;5.624;2022-08-19T11:44:51;6.35;;;4.20;;
7195;SDS011;3639;51.308;5.624;2022-08-19T11:47:17;5.10;;;3.50;;
7195;SDS011;3639;51.308;5.624;2022-08-19T11:49:43;6.40;;;4.07;;
7195;SDS011;3639;51.308;5.624;2022-08-19T11:52:10;5.40;;;3.67;;
7195;SDS011;3639;51.308;5.624;2022-08-19T11:54:36;3.95;;;3.08;;
7195;SDS011;3639;51.308;5.624;2022-08-19T11:57:02;5.22;;;3.13;;
7195;SDS011;3639;51.308;5.624;2022-08-19T11:59:28;4.22;;;3.15;;
7195;SDS011;3639;51.308;5.624;2022-08-19T12:01:54;6.90;;;4.00;;
7195;SDS011;3639;51.308;5.624;2022-08-19T12:04:20;4.43;;;3.50;;
7195;SDS011;3639;51.308;5.624;2022-08-19T12:06:46;4.63;;;3.58;;
7195;SDS011;3639;51.308;5.624;2022-08-19T12:09:12;6.38;;;4.05;;
7195;SDS011;3639;51.308;5.624;2022-08-19T12:11:40;4.57;;;3.65;;
7195;SDS011;3639;51.308;5.624;2022-08-19T12:14:08;5.38;;;4.22;;
7195;SDS011;3639;51.308;5.624;2022-08-19T12:16:35;8.93;;;4.47;;
7195;SDS011;3639;51.308;5.624;2022-08-19T12:19:02;7.05;;;4.55;;
7195;SDS011;3639;51.308;5.624;2022-08-19T12:21:31;6.15;;;4.10;;
7195;SDS011;3639;51.308;5.624;2022-08-19T12:23:59;10.43;;;4.30;;
7195;SDS011;3639;51.308;5.624;2022-08-19T12:26:26;6.53;;;4.60;;
7195;SDS011;3639;51.308;5.624;2022-08-19T12:28:53;6.80;;;4.63;;
7195;SDS011;3639;51.308;5.624;2022-08-19T12:31:19;8.35;;;4.50;;
7195;SDS011;3639;51.308;5.624;2022-08-19T12:33:45;6.63;;;4.30;;
7195;SDS011;3639;51.308;5.624;2022-08-19T12:36:12;6.95;;;4.32;;
7195;SDS011;3639;51.308;5.624;2022-08-19T12:38:40;5.15;;;4.20;;
7195;SDS011;3639;51.308;5.624;2022-08-19T12:41:07;6.72;;;4.30;;
7195;SDS011;3639;51.308;5.624;2022-08-19T12:43:36;7.82;;;4.75;;
7195;SDS011;3639;51.308;5.624;2022-08-19T12:46:03;6.75;;;4.30;;
7195;SDS011;3639;51.308;5.624;2022-08-19T12:48:30;6.68;;;4.30;;
7195;SDS011;3639;51.308;5.624;2022-08-19T12:50:56;7.93;;;4.30;;
7195;SDS011;3639;51.308;5.624;2022-08-19T12:53:22;6.03;;;3.58;;
7195;SDS011;3639;51.308;5.624;2022-08-19T12:55:47;6.20;;;3.55;;
7195;SDS011;3639;51.308;5.624;2022-08-19T12:58:20;4.82;;;3.72;;
7195;SDS011;3639;51.308;5.624;2022-08-19T13:00:46;4.93;;;3.42;;
7195;SDS011;3639;51.308;5.624;2022-08-19T13:03:13;4.88;;;2.95;;
7195;SDS011;3639;51.308;5.624;2022-08-19T13:05:40;5.43;;;3.47;;
7195;SDS011;3639;51.308;5.624;2022-08-19T13:08:06;4.95;;;2.58;;
7195;SDS011;3639;51.308;5.624;2022-08-19T13:10:33;5.22;;;3.50;;
7195;SDS011;3639;51.308;5.624;2022-08-19T13:13:00;4.38;;;3.38;;
7195;SDS011;3639;51.308;5.624;2022-08-19T13:15:36;3.42;;;2.97;;
7195;SDS011;3639;51.308;5.624;2022-08-19T13:18:04;4.85;;;2.90;;
7195;SDS011;3639;51.308;5.624;2022-08-19T13:20:30;4.07;;;2.80;;
7195;SDS011;3639;51.308;5.624;2022-08-19T13:22:56;3.00;;;2.30;;
7195;SDS011;3639;51.308;5.624;2022-08-19T13:25:22;3.50;;;2.25;;
7195;SDS011;3639;51.308;5.624;2022-08-19T13:27:48;3.33;;;2.20;;
7195;SDS011;3639;51.308;5.624;2022-08-19T13:30:16;3.35;;;2.40;;
7195;SDS011;3639;51.308;5.624;2022-08-19T13:33:01;2.92;;;2.20;;
7195;SDS011;3639;51.308;5.624;2022-08-19T13:35:36;3.20;;;2.38;;
7195;SDS011;3639;51.308;5.624;2022-08-19T13:38:02;2.13;;;1.83;;
7195;SDS011;3639;51.308;5.624;2022-08-19T13:40:30;2.10;;;1.90;;
7195;SDS011;3639;51.308;5.624;2022-08-19T13:42:58;3.08;;;2.15;;
7195;SDS011;3639;51.308;5.624;2022-08-19T13:45:27;3.83;;;2.42;;
7195;SDS011;3639;51.308;5.624;2022-08-19T13:47:54;3.00;;;2.17;;
7195;SDS011;3639;51.308;5.624;2022-08-19T13:50:25;2.60;;;2.00;;
7195;SDS011;3639;51.308;5.624;2022-08-19T13:52:53;3.35;;;2.22;;
7195;SDS011;3639;51.308;5.624;2022-08-19T13:55:20;2.30;;;1.90;;
7195;SDS011;3639;51.308;5.624;2022-08-19T13:57:49;3.65;;;2.63;;
7195;SDS011;3639;51.308;5.624;2022-08-19T14:00:17;3.80;;;2.75;;
7195;SDS011;3639;51.308;5.624;2022-08-19T14:02:44;2.88;;;2.38;;
7195;SDS011;3639;51.308;5.624;2022-08-19T14:05:12;3.60;;;2.45;;
7195;SDS011;3639;51.308;5.624;2022-08-19T14:07:39;3.95;;;2.35;;
7195;SDS011;3639;51.308;5.624;2022-08-19T14:10:06;3.25;;;2.20;;
7195;SDS011;3639;51.308;5.624;2022-08-19T14:12:34;2.90;;;2.53;;
7195;SDS011;3639;51.308;5.624;2022-08-19T14:15:00;2.35;;;1.83;;
7195;SDS011;3639;51.308;5.624;2022-08-19T14:17:27;2.80;;;2.17;;
7195;SDS011;3639;51.308;5.624;2022-08-19T14:19:57;3.70;;;2.70;;
7195;SDS011;3639;51.308;5.624;2022-08-19T14:22:23;4.05;;;2.75;;
7195;SDS011;3639;51.308;5.624;2022-08-19T14:24:48;2.95;;;2.35;;
7195;SDS011;3639;51.308;5.624;2022-08-19T14:27:15;3.92;;;2.63;;
7195;SDS011;3639;51.308;5.624;2022-08-19T14:29:41;5.97;;;3.70;;
7195;SDS011;3639;51.308;5.624;2022-08-19T14:32:06;4.63;;;2.60;;
7195;SDS011;3639;51.308;5.624;2022-08-19T14:34:32;3.40;;;2.30;;
7195;SDS011;3639;51.308;5.624;2022-08-19T14:36:58;3.60;;;2.65;;
7195;SDS011;3639;51.308;5.624;2022-08-19T14:39:24;4.93;;;2.53;;
7195;SDS011;3639;51.308;5.624;2022-08-19T14:41:50;3.70;;;2.28;;
7195;SDS011;3639;51.308;5.624;2022-08-19T14:44:15;3.05;;;2.50;;
7195;SDS011;3639;51.308;5.624;2022-08-19T14:46:41;2.10;;;1.83;;
7195;SDS011;3639;51.308;5.624;2022-08-19T14:49:07;3.55;;;2.42;;
7195;SDS011;3639;51.308;5.624;2022-08-19T14:51:32;2.70;;;2.10;;
7195;SDS011;3639;51.308;5.624;2022-08-19T14:53:58;2.83;;;2.08;;
7195;SDS011;3639;51.308;5.624;2022-08-19T14:56:25;2.63;;;2.17;;
7195;SDS011;3639;51.308;5.624;2022-08-19T14:58:53;2.42;;;1.83;;
7195;SDS011;3639;51.308;5.624;2022-08-19T15:01:20;3.15;;;2.13;;
7195;SDS011;3639;51.308;5.624;2022-08-19T15:03:47;3.58;;;2.67;;
7195;SDS011;3639;51.308;5.624;2022-08-19T15:06:13;4.07;;;3.20;;
7195;SDS011;3639;51.308;5.624;2022-08-19T15:08:40;4.55;;;3.30;;
7195;SDS011;3639;51.308;5.624;2022-08-19T15:11:09;3.65;;;2.80;;